sensor_id;sensor_type;location;lat;lon;timestamp;P1;P2;P0
45871;PMS5003;32333;55.844;-3.210;2022-12-07T00:05:56;0;0;
45871;PMS5003;32333;55.844;-3.210;2022-12-07T00:08:30;0;0;
45871;PMS5003;32333;55.844;-3.210;2022-12-07T00:11:02;0;0;
45871;PMS5003;32333;55.844;-3.210;2022-12-07T00:16:45;0;0;
45871;PMS5003;32333;55.844;-3.210;2022-12-07T00:49:19;0;0;
45871;PMS5003;32333;55.844;-3.210;2022-12-07T00:51:50;0;0;
45871;PMS5003;32333;55.844;-3.210;2022-12-07T00:55:15;0;0;
45871;PMS5003;32333;55.844;-3.210;2022-12-07T00:58:47;0;0;
45871;PMS5003;32333;55.844;-3.210;2022-12-07T01:01:25;0;0;
45871;PMS5003;32333;55.844;-3.210;2022-12-07T01:15:01;0;0;
45871;PMS5003;32333;55.844;-3.210;2022-12-07T01:17:33;0;0;
45871;PMS5003;32333;55.844;-3.210;2022-12-07T01:20:08;0;0;
45871;PMS5003;32333;55.844;-3.210;2022-12-07T01:23:30;0;0;
45871;PMS5003;32333;55.844;-3.210;2022-12-07T01:27:10;0;0;
45871;PMS5003;32333;55.844;-3.210;2022-12-07T01:29:42;0;0;
45871;PMS5003;32333;55.844;-3.210;2022-12-07T01:32:19;0;0;
45871;PMS5003;32333;55.844;-3.210;2022-12-07T01:34:56;0;0;
45871;PMS5003;32333;55.844;-3.210;2022-12-07T02:01:52;0;0;
45871;PMS5003;32333;55.844;-3.210;2022-12-07T02:07:31;0;0;
45871;PMS5003;32333;55.844;-3.210;2022-12-07T02:14:37;0;0;
45871;PMS5003;32333;55.844;-3.210;2022-12-07T02:17:12;0;0;
45871;PMS5003;32333;55.844;-3.210;2022-12-07T02:20:30;0;0;
45871;PMS5003;32333;55.844;-3.210;2022-12-07T05:48:26;0;0;
45871;PMS5003;32333;55.844;-3.210;2022-12-07T05:50:54;0;0;
45871;PMS5003;32333;55.844;-3.210;2022-12-07T05:53:23;0;0;
45871;PMS5003;32333;55.844;-3.210;2022-12-07T05:55:52;0;0;
45871;PMS5003;32333;55.844;-3.210;2022-12-07T05:58:20;0;0;
45871;PMS5003;32333;55.844;-3.210;2022-12-07T06:00:49;0;0;
45871;PMS5003;32333;55.844;-3.210;2022-12-07T06:03:18;0;0;
45871;PMS5003;32333;55.844;-3.210;2022-12-07T06:06:12;0;0;
45871;PMS5003;32333;55.844;-3.210;2022-12-07T06:08:43;1;0;
45871;PMS5003;32333;55.844;-3.210;2022-12-07T06:11:11;0;0;
45871;PMS5003;32333;55.844;-3.210;2022-12-07T06:14:38;0;0;
45871;PMS5003;32333;55.844;-3.210;2022-12-07T06:17:09;0;0;
45871;PMS5003;32333;55.844;-3.210;2022-12-07T06:19:40;0;0;
45871;PMS5003;32333;55.844;-3.210;2022-12-07T06:22:10;0;0;
45871;PMS5003;32333;55.844;-3.210;2022-12-07T06:24:44;0;0;
45871;PMS5003;32333;55.844;-3.210;2022-12-07T06:27:14;0;0;
45871;PMS5003;32333;55.844;-3.210;2022-12-07T06:29:44;0;0;
45871;PMS5003;32333;55.844;-3.210;2022-12-07T06:32:13;0;0;
45871;PMS5003;32333;55.844;-3.210;2022-12-07T06:34:43;0;0;
45871;PMS5003;32333;55.844;-3.210;2022-12-07T06:37:15;0;0;
45871;PMS5003;32333;55.844;-3.210;2022-12-07T06:40:14;0;0;
45871;PMS5003;32333;55.844;-3.210;2022-12-07T06:44:35;0;0;
45871;PMS5003;32333;55.844;-3.210;2022-12-07T06:47:06;0;0;
45871;PMS5003;32333;55.844;-3.210;2022-12-07T06:49:35;0;0;
45871;PMS5003;32333;55.844;-3.210;2022-12-07T06:52:03;0;0;
45871;PMS5003;32333;55.844;-3.210;2022-12-07T06:58:25;0;0;
45871;PMS5003;32333;55.844;-3.210;2022-12-07T07:00:55;0;0;
45871;PMS5003;32333;55.844;-3.210;2022-12-07T07:03:23;0;0;
45871;PMS5003;32333;55.844;-3.210;2022-12-07T07:05:52;0;0;
45871;PMS5003;32333;55.844;-3.210;2022-12-07T07:08:47;0;0;
45871;PMS5003;32333;55.844;-3.210;2022-12-07T07:11:16;0;0;
45871;PMS5003;32333;55.844;-3.210;2022-12-07T07:14:36;0;0;
45871;PMS5003;32333;55.844;-3.210;2022-12-07T07:17:05;0;0;
45871;PMS5003;32333;55.844;-3.210;2022-12-07T07:19:38;0;0;
45871;PMS5003;32333;55.844;-3.210;2022-12-07T07:22:07;0;0;
45871;PMS5003;32333;55.844;-3.210;2022-12-07T07:32:47;0;0;
45871;PMS5003;32333;55.844;-3.210;2022-12-07T07:35:19;0;0;
45871;PMS5003;32333;55.844;-3.210;2022-12-07T07:37:50;0;0;
45871;PMS5003;32333;55.844;-3.210;2022-12-07T07:44:35;0;0;
45871;PMS5003;32333;55.844;-3.210;2022-12-07T07:47:06;0;0;
45871;PMS5003;32333;55.844;-3.210;2022-12-07T07:49:37;0;0;
45871;PMS5003;32333;55.844;-3.210;2022-12-07T07:52:11;0;0;
45871;PMS5003;32333;55.844;-3.210;2022-12-07T07:55:01;0;0;
45871;PMS5003;32333;55.844;-3.210;2022-12-07T08:17:13;0;0;
45871;PMS5003;32333;55.844;-3.210;2022-12-07T08:19:42;0;0;
45871;PMS5003;32333;55.844;-3.210;2022-12-07T08:22:12;0;0;
45871;PMS5003;32333;55.844;-3.210;2022-12-07T08:24:42;0;0;
45871;PMS5003;32333;55.844;-3.210;2022-12-07T08:27:13;0;0;
45871;PMS5003;32333;55.844;-3.210;2022-12-07T08:29:41;0;0;
45871;PMS5003;32333;55.844;-3.210;2022-12-07T08:32:12;0;0;
45871;PMS5003;32333;55.844;-3.210;2022-12-07T08:34:41;0;0;
45871;PMS5003;32333;55.844;-3.210;2022-12-07T08:37:11;0;0;
45871;PMS5003;32333;55.844;-3.210;2022-12-07T08:39:40;0;0;
45871;PMS5003;32333;55.844;-3.210;2022-12-07T08:44:40;42;42;
45871;PMS5003;32333;55.844;-3.210;2022-12-07T08:47:15;0;0;
45871;PMS5003;32333;55.844;-3.210;2022-12-07T08:49:48;0;0;
45871;PMS5003;32333;55.844;-3.210;2022-12-07T08:52:32;0;0;
45871;PMS5003;32333;55.844;-3.210;2022-12-07T08:55:08;0;0;
45871;PMS5003;32333;55.844;-3.210;2022-12-07T08:57:41;0;0;
45871;PMS5003;32333;55.844;-3.210;2022-12-07T09:00:15;1;1;
45871;PMS5003;32333;55.844;-3.210;2022-12-07T09:02:45;0;0;
45871;PMS5003;32333;55.844;-3.210;2022-12-07T09:05:20;0;0;
45871;PMS5003;32333;55.844;-3.210;2022-12-07T09:07:51;0;0;
45871;PMS5003;32333;55.844;-3.210;2022-12-07T09:18:19;45;45;
45871;PMS5003;32333;55.844;-3.210;2022-12-07T09:20:53;58;58;
45871;PMS5003;32333;55.844;-3.210;2022-12-07T09:23:22;0;0;
45871;PMS5003;32333;55.844;-3.210;2022-12-07T09:25:52;64;64;
45871;PMS5003;32333;55.844;-3.210;2022-12-07T09:28:22;106;106;
45871;PMS5003;32333;55.844;-3.210;2022-12-07T09:30:50;36;36;
45871;PMS5003;32333;55.844;-3.210;2022-12-07T09:33:17;1;1;
45871;PMS5003;32333;55.844;-3.210;2022-12-07T09:35:49;0;0;
45871;PMS5003;32333;55.844;-3.210;2022-12-07T09:38:21;0;0;
45871;PMS5003;32333;55.844;-3.210;2022-12-07T09:40:50;0;0;
45871;PMS5003;32333;55.844;-3.210;2022-12-07T09:44:35;0;0;
45871;PMS5003;32333;55.844;-3.210;2022-12-07T09:47:08;0;0;
45871;PMS5003;32333;55.844;-3.210;2022-12-07T09:49:37;0;0;
45871;PMS5003;32333;55.844;-3.210;2022-12-07T09:52:18;0;0;
45871;PMS5003;32333;55.844;-3.210;2022-12-07T09:54:53;0;0;
45871;PMS5003;32333;55.844;-3.210;2022-12-07T09:57:32;1;1;
45871;PMS5003;32333;55.844;-3.210;2022-12-07T11:06:17;0;0;
45871;PMS5003;32333;55.844;-3.210;2022-12-07T11:56:14;0;0;
45871;PMS5003;32333;55.844;-3.210;2022-12-07T11:58:54;0;0;
45871;PMS5003;32333;55.844;-3.210;2022-12-07T12:03:14;0;0;
45871;PMS5003;32333;55.844;-3.210;2022-12-07T12:39:18;0;0;
45871;PMS5003;32333;55.844;-3.210;2022-12-07T12:41:53;0;0;
45871;PMS5003;32333;55.844;-3.210;2022-12-07T13:52:42;0;0;
45871;PMS5003;32333;55.844;-3.210;2022-12-07T13:56:54;0;0;
45871;PMS5003;32333;55.844;-3.210;2022-12-07T13:59:28;0;0;
45871;PMS5003;32333;55.844;-3.210;2022-12-07T14:02:55;0;0;
45871;PMS5003;32333;55.844;-3.210;2022-12-07T14:05:45;0;0;
45871;PMS5003;32333;55.844;-3.210;2022-12-07T14:15:27;0;0;
45871;PMS5003;32333;55.844;-3.210;2022-12-07T14:18:40;0;0;
45871;PMS5003;32333;55.844;-3.210;2022-12-07T14:44:35;0;0;
45871;PMS5003;32333;55.844;-3.210;2022-12-07T14:47:04;0;0;
45871;PMS5003;32333;55.844;-3.210;2022-12-07T14:49:35;0;0;
45871;PMS5003;32333;55.844;-3.210;2022-12-07T14:52:16;0;0;
45871;PMS5003;32333;55.844;-3.210;2022-12-07T14:54:47;0;0;
45871;PMS5003;32333;55.844;-3.210;2022-12-07T14:57:18;0;0;
45871;PMS5003;32333;55.844;-3.210;2022-12-07T15:14:36;0;0;
45871;PMS5003;32333;55.844;-3.210;2022-12-07T15:17:05;12;12;
45871;PMS5003;32333;55.844;-3.210;2022-12-07T15:21:31;52;52;
45871;PMS5003;32333;55.844;-3.210;2022-12-07T15:24:00;58;58;
45871;PMS5003;32333;55.844;-3.210;2022-12-07T15:26:29;19;19;
45871;PMS5003;32333;55.844;-3.210;2022-12-07T15:44:36;33;33;
45871;PMS5003;32333;55.844;-3.210;2022-12-07T16:05:31;6;6;
45871;PMS5003;32333;55.844;-3.210;2022-12-07T16:07:59;9;9;
45871;PMS5003;32333;55.844;-3.210;2022-12-07T16:10:36;1;1;
45871;PMS5003;32333;55.844;-3.210;2022-12-07T16:14:36;1;0;
45871;PMS5003;32333;55.844;-3.210;2022-12-07T16:17:09;1;1;
45871;PMS5003;32333;55.844;-3.210;2022-12-07T16:19:37;0;0;
45871;PMS5003;32333;55.844;-3.210;2022-12-07T16:22:07;6;6;
45871;PMS5003;32333;55.844;-3.210;2022-12-07T16:24:37;9;9;
45871;PMS5003;32333;55.844;-3.210;2022-12-07T16:27:48;13;13;
45871;PMS5003;32333;55.844;-3.210;2022-12-07T16:30:21;3;3;
45871;PMS5003;32333;55.844;-3.210;2022-12-07T16:33:47;37;37;
45871;PMS5003;32333;55.844;-3.210;2022-12-07T16:38:31;42;42;
45871;PMS5003;32333;55.844;-3.210;2022-12-07T16:41:00;51;51;
45871;PMS5003;32333;55.844;-3.210;2022-12-07T16:44:44;42;42;
45871;PMS5003;32333;55.844;-3.210;2022-12-07T16:47:27;45;45;
45871;PMS5003;32333;55.844;-3.210;2022-12-07T16:50:13;48;48;
45871;PMS5003;32333;55.844;-3.210;2022-12-07T16:52:42;24;24;
45871;PMS5003;32333;55.844;-3.210;2022-12-07T16:55:17;52;52;
45871;PMS5003;32333;55.844;-3.210;2022-12-07T16:57:49;49;49;
45871;PMS5003;32333;55.844;-3.210;2022-12-07T17:00:17;55;55;
45871;PMS5003;32333;55.844;-3.210;2022-12-07T17:03:00;15;15;
45871;PMS5003;32333;55.844;-3.210;2022-12-07T17:14:34;34;34;
45871;PMS5003;32333;55.844;-3.210;2022-12-07T17:17:05;19;19;
45871;PMS5003;32333;55.844;-3.210;2022-12-07T17:19:34;22;22;
45871;PMS5003;32333;55.844;-3.210;2022-12-07T17:22:03;18;18;
45871;PMS5003;32333;55.844;-3.210;2022-12-07T17:24:35;45;43;
45871;PMS5003;32333;55.844;-3.210;2022-12-07T17:27:11;19;19;
45871;PMS5003;32333;55.844;-3.210;2022-12-07T17:29:42;78;75;
45871;PMS5003;32333;55.844;-3.210;2022-12-07T17:32:12;76;52;
45871;PMS5003;32333;55.844;-3.210;2022-12-07T17:34:55;54;39;
45871;PMS5003;32333;55.844;-3.210;2022-12-07T17:44:35;12;12;
45871;PMS5003;32333;55.844;-3.210;2022-12-07T17:51:03;28;28;
45871;PMS5003;32333;55.844;-3.210;2022-12-07T17:53:31;64;64;
45871;PMS5003;32333;55.844;-3.210;2022-12-07T17:56:00;22;22;
45871;PMS5003;32333;55.844;-3.210;2022-12-07T17:58:34;37;37;
45871;PMS5003;32333;55.844;-3.210;2022-12-07T18:01:08;46;45;
45871;PMS5003;32333;55.844;-3.210;2022-12-07T18:03:37;39;39;
45871;PMS5003;32333;55.844;-3.210;2022-12-07T18:06:10;48;48;
45871;PMS5003;32333;55.844;-3.210;2022-12-07T18:08:53;27;27;
45871;PMS5003;32333;55.844;-3.210;2022-12-07T18:11:30;36;36;
45871;PMS5003;32333;55.844;-3.210;2022-12-07T18:14:35;55;55;
45871;PMS5003;32333;55.844;-3.210;2022-12-07T18:17:10;55;55;
45871;PMS5003;32333;55.844;-3.210;2022-12-07T18:19:41;34;34;
45871;PMS5003;32333;55.844;-3.210;2022-12-07T18:22:09;127;127;
45871;PMS5003;32333;55.844;-3.210;2022-12-07T18:24:39;34;34;
45871;PMS5003;32333;55.844;-3.210;2022-12-07T18:27:19;27;27;
45871;PMS5003;32333;55.844;-3.210;2022-12-07T18:29:48;45;45;
45871;PMS5003;32333;55.844;-3.210;2022-12-07T18:32:16;64;64;
45871;PMS5003;32333;55.844;-3.210;2022-12-07T18:34:44;51;51;
45871;PMS5003;32333;55.844;-3.210;2022-12-07T18:37:15;33;33;
45871;PMS5003;32333;55.844;-3.210;2022-12-07T18:44:36;52;52;
45871;PMS5003;32333;55.844;-3.210;2022-12-07T18:47:09;100;100;
45871;PMS5003;32333;55.844;-3.210;2022-12-07T18:49:59;30;30;
45871;PMS5003;32333;55.844;-3.210;2022-12-07T18:52:30;28;28;
45871;PMS5003;32333;55.844;-3.210;2022-12-07T18:55:42;114;114;
45871;PMS5003;32333;55.844;-3.210;2022-12-07T18:58:40;21;21;
45871;PMS5003;32333;55.844;-3.210;2022-12-07T19:01:44;42;42;
45871;PMS5003;32333;55.844;-3.210;2022-12-07T19:03:17;39;39;
45871;PMS5003;32333;55.844;-3.210;2022-12-07T19:07:10;39;39;
45871;PMS5003;32333;55.844;-3.210;2022-12-07T19:14:50;25;25;
45871;PMS5003;32333;55.844;-3.210;2022-12-07T19:17:19;34;34;
45871;PMS5003;32333;55.844;-3.210;2022-12-07T19:19:49;28;28;
45871;PMS5003;32333;55.844;-3.210;2022-12-07T19:22:21;76;76;
45871;PMS5003;32333;55.844;-3.210;2022-12-07T19:25:21;144;144;
45871;PMS5003;32333;55.844;-3.210;2022-12-07T19:27:50;126;126;
45871;PMS5003;32333;55.844;-3.210;2022-12-07T19:30:23;33;33;
45871;PMS5003;32333;55.844;-3.210;2022-12-07T19:34:17;33;33;
45871;PMS5003;32333;55.844;-3.210;2022-12-07T19:36:45;36;36;
45871;PMS5003;32333;55.844;-3.210;2022-12-07T19:39:32;25;25;
45871;PMS5003;32333;55.844;-3.210;2022-12-07T19:39:36;25;25;
45871;PMS5003;32333;55.844;-3.210;2022-12-07T19:46:45;39;39;
45871;PMS5003;32333;55.844;-3.210;2022-12-07T19:49:27;21;21;
45871;PMS5003;32333;55.844;-3.210;2022-12-07T19:52:42;15;15;
45871;PMS5003;32333;55.844;-3.210;2022-12-07T19:56:13;61;61;
45871;PMS5003;32333;55.844;-3.210;2022-12-07T20:07:05;34;34;
45871;PMS5003;32333;55.844;-3.210;2022-12-07T20:09:37;46;46;
45871;PMS5003;32333;55.844;-3.210;2022-12-07T20:14:35;22;22;
45871;PMS5003;32333;55.844;-3.210;2022-12-07T20:17:05;24;24;
45871;PMS5003;32333;55.844;-3.210;2022-12-07T20:19:34;6;6;
45871;PMS5003;32333;55.844;-3.210;2022-12-07T20:22:05;25;25;
45871;PMS5003;32333;55.844;-3.210;2022-12-07T20:32:15;27;27;
45871;PMS5003;32333;55.844;-3.210;2022-12-07T20:34:44;37;31;
45871;PMS5003;32333;55.844;-3.210;2022-12-07T20:37:17;57;57;
45871;PMS5003;32333;55.844;-3.210;2022-12-07T20:39:45;136;136;
45871;PMS5003;32333;55.844;-3.210;2022-12-07T20:44:37;91;91;
45871;PMS5003;32333;55.844;-3.210;2022-12-07T20:47:05;42;42;
45871;PMS5003;32333;55.844;-3.210;2022-12-07T20:49:37;30;30;
45871;PMS5003;32333;55.844;-3.210;2022-12-07T20:52:06;10;10;
45871;PMS5003;32333;55.844;-3.210;2022-12-07T20:54:34;24;24;
45871;PMS5003;32333;55.844;-3.210;2022-12-07T20:57:02;55;55;
45871;PMS5003;32333;55.844;-3.210;2022-12-07T20:59:30;51;51;
45871;PMS5003;32333;55.844;-3.210;2022-12-07T21:01:59;21;21;
45871;PMS5003;32333;55.844;-3.210;2022-12-07T21:04:27;93;93;
45871;PMS5003;32333;55.844;-3.210;2022-12-07T21:06:54;58;58;
45871;PMS5003;32333;55.844;-3.210;2022-12-07T21:09:22;66;66;
45871;PMS5003;32333;55.844;-3.210;2022-12-07T21:11:51;57;57;
45871;PMS5003;32333;55.844;-3.210;2022-12-07T21:14:34;27;27;
45871;PMS5003;32333;55.844;-3.210;2022-12-07T21:17:17;25;25;
45871;PMS5003;32333;55.844;-3.210;2022-12-07T21:19:46;36;36;
45871;PMS5003;32333;55.844;-3.210;2022-12-07T21:29:56;28;28;
45871;PMS5003;32333;55.844;-3.210;2022-12-07T21:32:26;27;27;
45871;PMS5003;32333;55.844;-3.210;2022-12-07T21:34:54;93;93;
45871;PMS5003;32333;55.844;-3.210;2022-12-07T21:37:21;88;88;
45871;PMS5003;32333;55.844;-3.210;2022-12-07T21:39:51;48;48;
45871;PMS5003;32333;55.844;-3.210;2022-12-07T21:44:36;55;55;
45871;PMS5003;32333;55.844;-3.210;2022-12-07T21:47:04;48;48;
45871;PMS5003;32333;55.844;-3.210;2022-12-07T21:49:38;36;36;
45871;PMS5003;32333;55.844;-3.210;2022-12-07T21:52:08;33;33;
45871;PMS5003;32333;55.844;-3.210;2022-12-07T21:54:38;34;34;
45871;PMS5003;32333;55.844;-3.210;2022-12-07T21:57:07;30;30;
45871;PMS5003;32333;55.844;-3.210;2022-12-07T21:59:42;28;28;
45871;PMS5003;32333;55.844;-3.210;2022-12-07T22:02:12;28;28;
45871;PMS5003;32333;55.844;-3.210;2022-12-07T22:04:41;31;31;
45871;PMS5003;32333;55.844;-3.210;2022-12-07T22:07:10;28;28;
45871;PMS5003;32333;55.844;-3.210;2022-12-07T22:09:39;27;27;
45871;PMS5003;32333;55.844;-3.210;2022-12-07T22:44:41;82;82;
45871;PMS5003;32333;55.844;-3.210;2022-12-07T22:47:12;42;42;
45871;PMS5003;32333;55.844;-3.210;2022-12-07T22:49:40;34;34;
45871;PMS5003;32333;55.844;-3.210;2022-12-07T22:52:08;84;84;
45871;PMS5003;32333;55.844;-3.210;2022-12-07T22:54:38;75;75;
45871;PMS5003;32333;55.844;-3.210;2022-12-07T22:58:00;60;60;
45871;PMS5003;32333;55.844;-3.210;2022-12-07T23:03:01;52;52;
45871;PMS5003;32333;55.844;-3.210;2022-12-07T23:05:31;28;28;
45871;PMS5003;32333;55.844;-3.210;2022-12-07T23:08:01;40;40;
45871;PMS5003;32333;55.844;-3.210;2022-12-07T23:10:31;39;39;
45871;PMS5003;32333;55.844;-3.210;2022-12-07T23:14:35;27;27;
45871;PMS5003;32333;55.844;-3.210;2022-12-07T23:17:03;36;36;
45871;PMS5003;32333;55.844;-3.210;2022-12-07T23:19:31;36;36;
45871;PMS5003;32333;55.844;-3.210;2022-12-07T23:22:00;34;34;
45871;PMS5003;32333;55.844;-3.210;2022-12-07T23:24:35;30;30;
45871;PMS5003;32333;55.844;-3.210;2022-12-07T23:27:51;18;18;
45871;PMS5003;32333;55.844;-3.210;2022-12-07T23:31:47;6;6;
45871;PMS5003;32333;55.844;-3.210;2022-12-07T23:34:15;0;0;
45871;PMS5003;32333;55.844;-3.210;2022-12-07T23:36:43;0;0;
45871;PMS5003;32333;55.844;-3.210;2022-12-07T23:39:10;0;0;
45871;PMS5003;32333;55.844;-3.210;2022-12-07T23:41:39;0;0;
45871;PMS5003;32333;55.844;-3.210;2022-12-07T23:44:37;0;0;
45871;PMS5003;32333;55.844;-3.210;2022-12-07T23:47:22;0;0;
45871;PMS5003;32333;55.844;-3.210;2022-12-07T23:49:57;0;0;
45871;PMS5003;32333;55.844;-3.210;2022-12-07T23:52:24;0;0;
45871;PMS5003;32333;55.844;-3.210;2022-12-07T23:55:02;0;0;
45871;PMS5003;32333;55.844;-3.210;2022-12-07T23:57:36;0;0;
